Tiempo atmosférico en la estación meteorológica de Fuengirola, Málaga (3 m.)



Fecha
DESCASC
Temp. máxima en grados centígrados (hora)
DESCASC
Temp. mínima en grados centígrados (hora)
DESCASC
Temp. media en grados centígrados
DESCASC
Racha de viento máxima en m/sg (hora)
DESCASC
Velocidad máxima media en intervalos de 10 minutos(hora)
DESCASC
Precipitaciones diarias en mm
DESCASC
Precipitaciones de 00:00 a 06:00 en mm
DESCASC
Precipitaciones de 06:00 a 12:00 en mm
DESCASC
Precipitaciones de 12:00 a 18:00 en mm
DESCASC
Precipitaciones de 18:00 a 24:00 en mm
DESCASC
23-05-2018 23 (15:30) 16.7 (06:50) 19.9 3.89 (15:30) 2.78 (15:50) 0 0 0 0 0
22-05-2018 20.1 (17:40) 16.4 (06:30) 18.3 6.39 (15:50) 4.44 (17:10) 0 0 0 0 0
21-05-2018 20 (19:10) 16.5 (06:40) 18.3 6.67 (15:00) 5 (15:00) 0 0 0 0 0
20-05-2018 19.8 (18:50) 17 (00:00) 18.4 4.17 (12:00) 2.78 (11:40) 0 0 0 0 0
19-05-2018 21 (16:50) 16.4 (00:00) 18.7 4.72 (11:40) 3.61 (11:40) 0 0 0 0 0
18-05-2018 21.3 (17:40) 16.6 (00:00) 18.9 5 (19:40) 3.33 (16:10) 0 0 0 0 0
17-05-2018 19.8 (12:00) 15.9 (00:00) 17.8 6.11 (12:20) 3.89 (15:00) 0 0 0 0 0
16-05-2018 21.2 (16:10) 15.8 (00:00) 18.5 7.22 (11:40) 4.72 (11:30) 0 0 0 0 0
15-05-2018 21.6 (13:10) 14.9 (00:00) 18.3 11.94 (22:30) 3.33 (18:30) 0 0 0 0 0
14-05-2018 18.8 (20:00) 13.8 (00:00) 16.3 4.17 (13:10) 3.06 (16:20) 0 0 0 0 0
13-05-2018 22.6 (13:40) 15.5 (00:00) 19.1 9.72 (02:30) 4.72 (03:00) 0 0 0 0 0
12-05-2018 24.3 (20:00) 16 (00:00) 20.1 10.56 (13:30) 5.83 (13:30) 0 0 0 0 0
11-05-2018 20.4 (19:10) 16.3 (08:00) 18.3 8.33 (20:00) 4.72 (02:40) 0 0 0 0 0
10-05-2018 21.9 (19:10) 17.4 (00:00) 19.6 11.67 (16:20) 4.17 (11:30) 0 0 0 0 0
09-05-2018 24.4 (17:20) 17.7 (00:00) 21.1 10.83 (13:50) 3.89 (11:20) 0.1 0 0.1 0 0
08-05-2018 25.2 (18:40) 15.5 (00:00) 20.4 7.78 (20:20) 5 (12:00) 0 0 0 0 0
07-05-2018 20.4 (20:00) 16.9 (00:00) 18.6 5.28 (16:50) 3.61 (01:40) 4.9 0 4.9 0 0
06-05-2018 20.6 (16:00) 16.3 (00:00) 18.4 6.67 (11:20) 4.44 (11:00) 0 0 0 0 0
05-05-2018 20.2 (17:50) 15.2 (00:00) 17.7 5.28 (20:10) 3.61 (03:10) 0 0 0 0 0
04-05-2018 21.2 (02:50) 16.7 (00:00) 19 10.56 (14:50) 7.22 (14:50) 0 0 0 0 0
03-05-2018 20.8 (19:50) 16.4 (00:00) 18.6 9.44 (07:20) 5 (13:40) 0 0 0 0 0
02-05-2018 19.1 (21:50) 11.8 (00:00) 15.5 9.72 (13:50) 5 (13:50) 0 0 0 0 0
01-05-2018 17.2 (12:00) 12.8 (17:50) 15 11.39 (16:00) 5.56 (16:00) 2.1 0 0 2 0.1
30-04-2018 18.3 (19:30) 12.1 (00:00) 15.2 7.5 (15:10) 4.44 (14:50) 0 0 0 0 0
29-04-2018 18.4 (17:20) 13 (00:00) 15.7 13.89 (16:50) 4.72 (15:30) 0 0 0 0 0
28-04-2018 19.6 (16:50) 15.5 (00:00) 17.6 13.89 (12:10) 5 (15:20) 0 0 0 0 0
27-04-2018 24.1 (19:20) 15.9 (00:00) 20 6.94 (12:40) 3.61 (16:10) 0 0 0 0 0
26-04-2018 19.8 (16:40) 16 (00:00) 17.9 7.22 (11:40) 4.72 (11:40) 0.3 0.3 0 0 0
25-04-2018 20.1 (10:30) 15.3 (00:00) 17.7 8.61 (11:00) 6.11 (11:10) 0.2 0 0.2 0 0
24-04-2018 19.6 (15:10) 17.9 (00:00) 18.8 8.06 (01:40) 3.89 (14:10) 0 0 0 0 0

Gráficas

Temp. máximas Temp. mínimas Temp. medias Precipitaciones Rachas de viento máximas Velocidades máximas media en intervalos de 10 minutos

Datos horarios

Fecha y hora oficial Temperatura (ºC) Velocidad del viento (km/h) Dirección del viento Racha (km/h) Dirección de racha Precipitación (mm) Presión (hPa) Tendencia (hPa) Humedad (%)
2018-05-23 23:00:00 20.8 2 Norte 7 Noroeste 0 1014 1.2 62
2018-05-23 22:00:00 20.8 2 Sudoeste 3 Sudoeste 0 1013.4 0.7 63
2018-05-23 21:00:00 21.4 2 Sudeste 3 Sudeste 0 1013.1 0.1 60
2018-05-23 20:00:00 22 0 Calma 3 Sudoeste 0 1012.8 -0.5 59
2018-05-23 19:00:00 21.8 2 Sudoeste 5 Sudeste 0 1012.7 -1.2 65
2018-05-23 18:00:00 22.5 3 Sudeste 8 Este 0 1013 -1.2 63
2018-05-23 17:00:00 22.6 6 Nordeste 12 Nordeste 0 1013.3 -1.5 67
2018-05-23 16:00:00 22.3 8 Este 14 Sudeste 0 1013.9 -1.2 75
2018-05-23 15:00:00 22.5 7 Este 13 Este 0 1014.2 -0.8 73
2018-05-23 14:00:00 21.8 8 Nordeste 12 Nordeste 0 1014.8 0.5 76
2018-05-23 13:00:00 20.7 6 Este 10 Este 0 1015.1 0.1 81
2018-05-23 12:00:00 19.6 3 Sur 13 Nordeste 0 1015 0.3 85
2018-05-23 11:00:00 18.9 8 Nordeste 12 Nordeste 0 1014.3 0 83
2018-05-23 10:00:00 19.2 0 Calma 8 Noroeste 0 1015 1 79
2018-05-23 09:00:00 18.4 6 Noroeste 12 Oeste 0 1014.7 0.9 78
2018-05-23 08:00:00 17.2 4 Noroeste 11 Oeste 0 1014.3 0.5 81
2018-05-23 07:00:00 16.9 4 Noroeste 9 Noroeste 0 1014 0.1 82
2018-05-23 06:00:00 17 3 Noroeste 10 Oeste 0 1013.8 -0.3 82
2018-05-23 05:00:00 17.1 3 Noroeste 5 Oeste 0 1013.8 -0.5 86
2018-05-23 04:00:00 18 3 Sudeste 5 Sudeste 0 1013.9 -0.8 89
2018-05-23 03:00:00 17.7 3 Noroeste 8 Oeste 0 1014.1 -0.4 82
2018-05-23 02:00:00 18.4 2 Noroeste 6 Oeste 0 1014.3 0.2 84
2018-05-23 01:00:00 18.6 3 Noroeste 6 Noroeste 0 1014.7 1.5 85
2018-05-23 00:00:00 19.7 4 Nordeste 9 Oeste 0 1014.5 1.7 84
2018-05-22 23:00:00 19.9 2 Sudoeste 12 Sudoeste 0 1014.1 1.6 81
2018-05-22 22:00:00 19.6 3 Sudoeste 15 Sur 0 1013.2 0.6 87
2018-05-22 21:00:00 19.6 0 Calma 19 Sudoeste 0 1012.8 0.1 89
2018-05-22 20:00:00 19.5 10 Sudoeste 20 Sudoeste 0 1012.5 -0.4 92
2018-05-22 19:00:00 19.6 13 Sur 19 Sur 0 1012.6 -0.7 88
2018-05-22 18:00:00 19.7 13 Sur 22 Sudoeste 0 1012.7 -0.9 89
2018-05-22 17:00:00 19.2 16 Sudoeste 23 Sudoeste 0 1012.9 -0.8 91
2018-05-22 16:00:00 19.1 15 Sudoeste 23 Sudoeste 0 1013.3 -0.5 91
2018-05-22 15:00:00 19.2 14 Sudoeste 20 Sudoeste 0 1013.6 -0.1 85
2018-05-22 14:00:00 19.4 13 Sudoeste 19 Sudoeste 0 1013.7 0.2 84
2018-05-22 13:00:00 18.1 14 Sudoeste 19 Sur 0 1013.8 0.4 93
2018-05-22 12:00:00 18 12 Sudoeste 18 Sudoeste 0 1013.7 0.8 95
2018-05-22 11:00:00 17.8 11 Sudoeste 17 Sudoeste 0 1013.5 0.9 95
2018-05-22 10:00:00 18.5 6 Sur 10 Sudoeste 0 1013.4 1.4 92
2018-05-22 09:00:00 17.2 0 Calma 4 Sudeste 0 1012.9 1 86
2018-05-22 08:00:00 17 2 Sudoeste 8 Oeste 0 1012.6 0.8 85
2018-05-22 07:00:00 16.5 0 Calma 12 Oeste 0 1012 0 86
2018-05-22 06:00:00 16.7 0 Calma 14 Oeste 0 1011.9 -0.3 86
2018-05-22 05:00:00 17 0 Calma 12 Oeste 0 1011.8 -0.7 86
2018-05-22 04:00:00 17.3 4 Noroeste 10 Oeste 0 1012 -0.9 86
2018-05-22 03:00:00 17.5 4 Noroeste 8 Oeste 0 1012.2 -0.6 86
2018-05-22 02:00:00 18.4 0 Calma 9 Oeste 0 1012.5 -0.2 87
2018-05-22 01:00:00 18.4 2 Oeste 10 Oeste 0 1012.9 0.7 89
2018-05-22 00:00:00 18.8 2 Oeste 13 Oeste 0 1012.8 0.8 90
2018-05-21 23:00:00 19.2 2 Oeste 9 Oeste 0 1012.7 1 86
2018-05-21 22:00:00 19.7 3 Sudoeste 14 Oeste 0 1012.2 0.3 84
2018-05-21 21:00:00 19.7 4 Oeste 18 Oeste 0 1012 0 81
2018-05-21 20:00:00 19.9 4 Sudoeste 17 Sudoeste 0 1011.7 0 81
2018-05-21 19:00:00 19.5 6 Sudoeste 15 Sur 0 1011.9 0.4 80
2018-05-21 18:00:00 19.5 6 Sudeste 22 Sur 0 1012 0.4 92
2018-05-21 17:00:00 18.7 15 Sur 24 Sudoeste 0 1011.7 -0.4 93
2018-05-21 16:00:00 18.9 16 Sudoeste 23 Sudoeste 0 1011.5 -1 90
2018-05-21 15:00:00 18.6 18 Sudoeste 24 Sur 0 1011.6 -1.1 95
2018-05-21 14:00:00 18.4 12 Sudoeste 18 Sur 0 1012.1 -0.3 96
2018-05-21 13:00:00 18.3 8 Sur 12 Sur 0 1012.5 0.4 96
2018-05-21 12:00:00 18.3 5 Sur 10 Sur 0 1012.7 0.7 95
2018-05-21 11:00:00 18 6 Sur 10 Sur 0 1012.4 0.7 92
2018-05-21 10:00:00 17.9 4 Sur 5 Sur 0 1012.1 0.7 90
2018-05-21 09:00:00 17.5 0 Calma 6 Oeste 0 1012 1 89
2018-05-21 08:00:00 16.9 4 Oeste 8 Noroeste 0 1011.7 0.6 89
2018-05-21 07:00:00 16.6 5 Oeste 10 Oeste 0 1011.4 0 89
2018-05-21 06:00:00 16.7 3 Noroeste 9 Noroeste 0 1011 -0.7 89
2018-05-21 05:00:00 16.7 0 Calma 5 Noroeste 0 1011.1 -0.9 89
2018-05-21 04:00:00 16.8 3 Noroeste 9 Oeste 0 1011.4 -1 89
2018-05-21 03:00:00 17.3 3 Noroeste 6 Noroeste 0 1011.7 -1 88
2018-05-21 02:00:00 17.6 2 Oeste 10 Oeste 0 1012 -0.4 88
2018-05-21 01:00:00 18 4 Oeste 9 Oeste 0 1012.4 0.3 89
2018-05-21 00:00:00 18.3 4 Oeste 10 Oeste 0 1012.7 0.8 89
2018-05-20 23:00:00 18.7 2 Sudoeste 4 Sudoeste 0 1012.4 0.4 91
2018-05-20 22:00:00 18.7 2 Sur 6 Este 0 1012.1 -0.2 90
2018-05-20 21:00:00 18.9 4 Este 12 Este 0 1011.9 -0.3 89
2018-05-20 20:00:00 19.4 6 Sudeste 8 Sudeste 0 1012 0.1 87
2018-05-20 19:00:00 19.6 3 Sudeste 7 Sudeste 0 1012.3 -0.4 87
2018-05-20 18:00:00 19.5 4 Sudeste 9 Sur 0 1012.2 -1 87
2018-05-20 17:00:00 19.1 9 Sur 14 Sur 0 1011.9 -1.6 90
2018-05-20 16:00:00 19.5 8 Sur 11 Sur 0 1012.7 -1.3 90
2018-05-20 15:00:00 19.2 6 Sur 10 Sur 0 1013.2 -0.9 90
2018-05-20 14:00:00 18.9 7 Sur 14 Sudoeste 0 1013.5 -0.5 91
2018-05-20 13:00:00 18.9 10 Sudoeste 14 Sudoeste 0 1014 0.2 92
2018-05-20 12:00:00 18.3 10 Sudoeste 15 Sudoeste 0 1014.1 0.2 92
2018-05-20 11:00:00 18.6 8 Sur 11 Sur 0 1014 0.2 89
2018-05-20 10:00:00 18.2 6 Sur 8 Sur 0 1013.8 0.5 86
2018-05-20 09:00:00 17.6 2 Oeste 8 Oeste 0 1013.9 0.7 86
2018-05-20 08:00:00 17.1 4 Oeste 7 Oeste 0 1013.8 0.1 87
2018-05-20 07:00:00 17.3 2 Noroeste 6 Oeste 0 1013.3 -0.5 89
2018-05-20 06:00:00 17.8 2 Sudoeste 7 Oeste 0 1013.2 -1.2 90
2018-05-20 05:00:00 18 3 Oeste 9 Sudoeste 0 1013.7 -1.1 90
2018-05-20 04:00:00 18.3 3 Oeste 9 Oeste 0 1013.8 -1.3 85
2018-05-20 03:00:00 17.9 0 Calma 6 Oeste 0 1014.4 -1 86
2018-05-20 02:00:00 18.1 0 Calma 4 Sudeste 0 1014.8 -0.4 92
2018-05-20 01:00:00 18.5 3 Sudeste 6 Sudeste 0 1015.1 0.3 91
2018-05-20 00:00:00 18.9 3 Sudeste 6 Sudeste 0 1015.4 0.5 89
2018-05-19 23:00:00 18.9 3 Sudeste 5 Sudeste 0 1015.2 0.7 86
2018-05-19 22:00:00 18.9 0 Calma 5 Sudeste 0 1014.8 0 83
2018-05-19 21:00:00 19.1 4 Este 8 Este 0 1014.9 0.4 81
2018-05-19 20:00:00 19.4 5 Este 7 Sudeste 0 1014.5 -0.6 83
2018-05-19 19:00:00 20.5 3 Sudeste 7 Sudeste 0 1014.8 -0.7 81
2018-05-19 18:00:00 20.6 5 Sudeste 10 Este 0 1014.5 -1.2 81
2018-05-19 17:00:00 20.9 8 Sudeste 13 Sudeste 0 1015.1 -1.2 82
2018-05-19 16:00:00 20.3 6 Sudeste 10 Sur 0 1015.5 -1 84
2018-05-19 15:00:00 19.9 6 Sur 9 Sudeste 0 1015.7 -0.6 84
2018-05-19 14:00:00 20.1 8 Sudeste 13 Sudeste 0 1016.3 0.2 86
2018-05-19 13:00:00 20 9 Sudeste 15 Sudeste 0 1016.5 1 87
2018-05-19 12:00:00 19.3 12 Sudeste 17 Sudeste 0 1016.3 1.4 87
2018-05-19 11:00:00 18.7 9 Sudeste 12 Sudeste 0 1016.1 1.5 89
2018-05-19 10:00:00 17.9 5 Sur 7 Sur 0 1015.5 1.2 87
2018-05-19 09:00:00 17.3 3 Oeste 6 Oeste 0 1014.9 0.6 83
2018-05-19 08:00:00 16.5 3 Noroeste 7 Noroeste 0 1014.6 0.3 82
2018-05-19 07:00:00 16.4 5 Noroeste 9 Noroeste 0 1014.3 -0.3 82
2018-05-19 06:00:00 16.5 4 Noroeste 9 Noroeste 0 1014.3 -0.7 82
2018-05-19 05:00:00 16.5 5 Noroeste 13 Oeste 0 1014.3 -1.1 82
2018-05-19 04:00:00 16.7 4 Noroeste 8 Oeste 0 1014.6 -1 83
2018-05-19 03:00:00 16.9 4 Oeste 8 Oeste 0 1015 -0.5 85
2018-05-19 02:00:00 17.5 0 Calma 5 Norte 0 1015.4 0.2 85
2018-05-19 01:00:00 17.5 0 Calma 6 Sudeste 0 1015.6 1 85
2018-05-19 00:00:00 17.9 6 Sudeste 10 Sudeste 0 1015.5 1.1 87
2018-05-18 23:00:00 18.5 8 Sudeste 11 Sudeste 0 1015.2 0.9 84
2018-05-18 22:00:00 18.6 9 Este 12 Este 0 1014.6 0.1 82
2018-05-18 21:00:00 19.5 7 Este 13 Sudeste 0 1014.4 -0.4 81
2018-05-18 20:00:00 20.5 10 Este 18 Sudeste 0 1014.3 -0.5 79
2018-05-18 19:00:00 20.4 10 Este 17 Este 0 1014.5 -0.9 80
2018-05-18 18:00:00 21.1 8 Este 13 Este 0 1014.8 -1 80
2018-05-18 17:00:00 21 6 Este 15 Sudeste 0 1014.8 -1.4 81
2018-05-18 16:00:00 20.7 11 Sudeste 14 Sudeste 0 1015.4 -1 81
2018-05-18 15:00:00 20.5 8 Sudeste 12 Sudeste 0 1015.8 -0.4 82
2018-05-18 14:00:00 20.2 7 Sudeste 10 Sudeste 0 1016.2 0.4 83
2018-05-18 13:00:00 19.8 7 Sudeste 13 Sudeste 0 1016.4 1 84
2018-05-18 12:00:00 19.4 9 Sudeste 13 Sudeste 0 1016.2 1.2 84
2018-05-18 11:00:00 18.9 5 Este 9 Sudeste 0 1015.8 1.1 86
2018-05-18 10:00:00 18.3 4 Sudeste 7 Sudeste 0 1015.4 1 84
2018-05-18 09:00:00 17.7 3 Este 6 Noroeste 0 1015 0.6 84
2018-05-18 08:00:00 16.8 5 Noroeste 8 Noroeste 0 1014.7 0.3 85
2018-05-18 07:00:00 16.8 2 Noroeste 7 Oeste 0 1014.4 -0.3 85
2018-05-18 06:00:00 17 0 Calma 5 Noroeste 0 1014.4 -0.6 82
2018-05-18 05:00:00 16.9 0 Calma 6 Norte 0 1014.4 -1.2 87
2018-05-18 04:00:00 17.3 2 Nordeste 9 Este 0 1014.7 -1.1 87
2018-05-18 03:00:00 17.7 6 Nordeste 14 Este 0 1015 -1.1 87
2018-05-18 02:00:00 17.9 9 Este 14 Este 0 1015.6 0.1 89
2018-05-18 01:00:00 17.9 11 Este 17 Este 0 1015.8 0.9 87
2018-05-18 00:00:00 18.1 9 Este 15 Nordeste 0 1016.1 1.6 87
2018-05-17 23:00:00 17.8 7 Este 13 Nordeste 0 1015.5 1.3 88
2018-05-17 22:00:00 18.1 8 Este 22 Este 0 1014.9 0.7 87
2018-05-17 21:00:00 18.6 9 Nordeste 16 Este 0 1014.5 0.7 86
2018-05-17 20:00:00 19.3 8 Este 17 Este 0 1014.2 0.6 82
2018-05-17 19:00:00 18.6 3 Sudeste 8 Sudeste 0 1014.2 0.7 90
2018-05-17 18:00:00 18.3 4 Sudoeste 13 Sur 0 1013.8 0.6 92
2018-05-17 17:00:00 18.6 9 Sur 18 Sudeste 0 1013.6 0.6 87
2018-05-17 16:00:00 18.5 8 Sur 21 Sur 0 1013.5 1 87
2018-05-17 15:00:00 18 14 Sudoeste 19 Sudoeste 0 1013.2 1.4 89
2018-05-17 14:00:00 18.9 7 Sudoeste 19 Sudoeste 0 1013 1.3 79
2018-05-17 13:00:00 19.2 6 Sudoeste 22 Sudoeste 0 1012.5 0.7 77
2018-05-17 12:00:00 19.7 6 Sudoeste 18 Sudoeste 0 1011.8 -0.1 73
2018-05-17 11:00:00 19 6 Sudoeste 17 Sur 0 1011.7 0 77
2018-05-17 10:00:00 19 4 Oeste 14 Oeste 0 1011.8 1 75
2018-05-17 09:00:00 17.2 3 Oeste 10 Oeste 0 1011.9 1 76
2018-05-17 08:00:00 16.2 5 Noroeste 13 Noroeste 0 1011.7 0.4 78
2018-05-17 07:00:00 16 7 Noroeste 14 Oeste 0 1010.8 -1.2 78
2018-05-17 06:00:00 16.5 7 Oeste 10 Oeste 0 1010.9 -1.8 77
2018-05-17 05:00:00 17 3 Noroeste 8 Oeste 0 1011.3 -1.8 77
2018-05-17 04:00:00 17.5 3 Oeste 9 Oeste 0 1012 -1.2 75
2018-05-17 03:00:00 17.5 4 Oeste 12 Oeste 0 1012.7 -0.7 73
2018-05-17 02:00:00 17.5 5 Oeste 11 Oeste 0 1013.1 0.4 73
2018-05-17 01:00:00 18.4 3 Oeste 8 Noroeste 0 1013.2 1.1 72
2018-05-17 00:00:00 18.6 2 Oeste 7 Oeste 0 1013.4 1.8 72
2018-05-16 23:00:00 18.6 0 Calma 8 Noroeste 0 1012.7 1.1 68
2018-05-16 22:00:00 18.7 3 Nordeste 9 Nordeste 0 1012.1 0.1 70
2018-05-16 21:00:00 19.1 8 Este 19 Nordeste 0 1011.6 -0.5 70
2018-05-16 20:00:00 19.8 10 Nordeste 17 Nordeste 0 1011.6 -0.7 71
2018-05-16 19:00:00 20.4 9 Nordeste 20 Este 0 1012 -0.6 71
2018-05-16 18:00:00 20.4 7 Nordeste 15 Este 0 1012.1 -0.8 73
2018-05-16 17:00:00 21.1 9 Este 18 Sudeste 0 1012.3 -1 72
2018-05-16 16:00:00 21.1 9 Este 15 Nordeste 0 1012.6 -1.1 71
2018-05-16 15:00:00 20.6 8 Este 14 Este 0 1012.9 -1.1 70
2018-05-16 14:00:00 20.8 10 Este 20 Este 0 1013.3 -0.5 67
2018-05-16 13:00:00 19.6 13 Este 21 Nordeste 0 1013.7 0.1 77
2018-05-16 12:00:00 19.1 15 Este 26 Este 0 1014 0.6 78
2018-05-16 11:00:00 18.7 16 Este 26 Este 0 1013.8 0.3 77
2018-05-16 10:00:00 18.3 17 Este 25 Este 0 1013.6 0 76
2018-05-16 09:00:00 17.6 12 Este 18 Este 0 1013.4 -0.2 82
2018-05-16 08:00:00 17.1 6 Nordeste 12 Nordeste 0 1013.5 -0.2 82
2018-05-16 07:00:00 16.3 3 Este 13 Nordeste 0 1013.6 -0.3 79
2018-05-16 06:00:00 17.2 8 Este 14 Nordeste 0 1013.6 -0.7 82
2018-05-16 05:00:00 17.5 9 Nordeste 16 Este 0 1013.7 -1.2 84
2018-05-16 04:00:00 17.4 10 Nordeste 15 Nordeste 0 1013.9 -1.2 87
2018-05-16 03:00:00 17.5 6 Este 11 Nordeste 0 1014.3 -0.9 90
2018-05-16 02:00:00 17.4 8 Nordeste 19 Nordeste 0 1014.9 0.3 90
2018-05-16 01:00:00 17.5 8 Este 14 Este 0 1015.1 1 91
2018-05-16 00:00:00 18.2 8 Este 13 Este 0 1015.2 1.3 81
2018-05-15 23:00:00 18.4 9 Este 43 Este 0 1014.6 1.1 71
2018-05-15 22:00:00 18.6 12 Este 18 Este 0 1014.1 0.4 66
2018-05-15 21:00:00 19.4 9 Este 14 Este 0 1013.9 0 60
2018-05-15 20:00:00 20.1 10 Este 15 Este 0 1013.5 -1 73
2018-05-15 19:00:00 20.4 9 Este 18 Sudeste 0 1013.7 -1.4 77
2018-05-15 18:00:00 20.8 10 Este 17 Sudeste 0 1013.9 -1.6 79
2018-05-15 17:00:00 20.5 8 Este 15 Este 0 1014.5 -1.6 80
2018-05-15 16:00:00 20.8 11 Este 16 Este 0 1015.1 -1 77
2018-05-15 15:00:00 20.2 8 Nordeste 16 Este 0 1015.5 -0.4 73
2018-05-15 14:00:00 21 12 Este 17 Este 0 1016.1 0.5 60
2018-05-15 13:00:00 21.4 10 Este 16 Este 0 1016.1 0.7 57
2018-05-15 12:00:00 20.9 8 Este 13 Este 0 1015.9 0.7 54
2018-05-15 11:00:00 19.6 5 Este 8 Este 0 1015.6 0.7 49
2018-05-15 10:00:00 18.3 0 Calma 7 Oeste 0 1015.4 0.9 50
2018-05-15 09:00:00 17 3 Noroeste 13 Noroeste 0 1015.2 0.7 57
2018-05-15 08:00:00 15.4 6 Noroeste 12 Noroeste 0 1014.9 0.3 60
2018-05-15 07:00:00 14.9 6 Noroeste 10 Noroeste 0 1014.5 -0.2 63
2018-05-15 06:00:00 15 6 Noroeste 9 Noroeste 0 1014.5 -0.8 65
2018-05-15 05:00:00 15.1 5 Noroeste 9 Noroeste 0 1014.6 -1.2 65
2018-05-15 04:00:00 15.5 5 Noroeste 9 Noroeste 0 1014.7 -1.3 65
2018-05-15 03:00:00 16 3 Noroeste 8 Noroeste 0 1015.3 -0.5 67
2018-05-15 02:00:00 16.1 4 Noroeste 7 Norte 0 1015.8 0.2 69
2018-05-15 01:00:00 16.6 2 Norte 6 Oeste 0 1016 0.9 70
2018-05-15 00:00:00 16.7 0 Calma 7 Oeste 0 1015.8 0.9 75
2018-05-14 23:00:00 17.1 0 Calma 4 Nordeste 0 1015.6 0.9 80
2018-05-14 22:00:00 17.3 3 Nordeste 7 Este 0 1015.1 0.4 86
2018-05-14 21:00:00 18.1 3 Este 6 Este 0 1014.9 0 84
2018-05-14 20:00:00 18.6 3 Sudeste 8 Sur 0 1014.7 -0.5 86
2018-05-14 19:00:00 18.1 6 Sudoeste 12 Sur 0 1014.7 -1.1 86
2018-05-14 18:00:00 18.1 9 Sur 14 Sur 0 1014.9 -1.5 84
2018-05-14 17:00:00 17.9 10 Sur 14 Sur 0 1015.2 -1.7 80
2018-05-14 16:00:00 17.8 10 Sur 15 Sudoeste 0 1015.8 -1.3 81
2018-05-14 15:00:00 18 9 Sudoeste 14 Sudoeste 0 1016.4 -0.7 81
2018-05-14 14:00:00 17.9 4 Sudoeste 15 Sudoeste 0 1016.9 -0.4 82
2018-05-14 13:00:00 17.4 10 Sudoeste 15 Sudoeste 0 1017.1 -0.2 80
2018-05-14 12:00:00 17 10 Sudoeste 15 Sudoeste 0 1017.1 -0.1 79
2018-05-14 11:00:00 16.9 7 Sudoeste 9 Sudoeste 0 1017.3 0 77
2018-05-14 10:00:00 16.9 4 Sudoeste 9 Sur 0 1017.3 0.2 70
2018-05-14 09:00:00 15.5 4 Noroeste 10 Noroeste 0 1017.2 -0.2 69
2018-05-14 08:00:00 14.1 6 Noroeste 12 Oeste 0 1017.3 -0.3 70
2018-05-14 07:00:00 14.1 5 Noroeste 9 Oeste 0 1017.1 -0.7 69
2018-05-14 06:00:00 14.6 7 Noroeste 13 Oeste 0 1017.4 -0.9 68
2018-05-14 05:00:00 14.8 6 Noroeste 14 Oeste 0 1017.6 -1.1 67
2018-05-14 04:00:00 15 7 Oeste 12 Oeste 0 1017.8 -1 67
2018-05-14 03:00:00 16 6 Noroeste 13 Noroeste 0 1018.3 -0.8 65
2018-05-14 02:00:00 16.1 4 Noroeste 8 Oeste 0 1018.7 -0.1 65
2018-05-14 01:00:00 16.6 2 Noroeste 6 Norte 0 1018.8 0.8 65
2018-05-11 20:00:00 20.3 9 Oeste 30 Oeste 0 1016 -1.3 76
2018-05-11 19:00:00 20.2 7 Sudoeste 20 Sudoeste 0 1016.5 -1.3 76
2018-05-11 18:00:00 20.1 6 Sudoeste 20 Sudoeste 0 1016.8 -1.1 76
2018-05-11 17:00:00 19.9 5 Sudoeste 18 Sur 0 1017.3 -0.8 78
2018-05-11 16:00:00 19.6 8 Sudoeste 24 Sudoeste 0 1017.8 -0.6 80
2018-05-11 15:00:00 19.3 9 Sudoeste 23 Sudoeste 0 1017.9 -0.7 81
2018-05-11 14:00:00 18.6 13 Sudoeste 20 Sudoeste 0 1018.1 -0.3 87
2018-05-11 13:00:00 18.1 13 Sudoeste 19 Sudoeste 0 1018.4 0.3 90
2018-05-11 12:00:00 17.7 11 Sudoeste 16 Sudoeste 0 1018.6 1 93
2018-05-11 11:00:00 17.8 5 Sudoeste 9 Sur 0 1018.4 1.5 92
2018-05-11 10:00:00 17.6 5 Sur 6 Sur 0 1018.1 1.7 90
2018-05-11 09:00:00 17.2 0 Calma 10 Noroeste 0 1017.6 1.5 90
2018-05-11 08:00:00 16.4 4 Oeste 8 Oeste 0 1016.9 1 91
2018-05-11 07:00:00 16.9 0 Calma 6 Este 0 1016.4 0.3 92
2018-05-11 06:00:00 16.8 0 Calma 7 Noroeste 0 1016.1 0.3 89
2018-05-11 05:00:00 16.8 3 Noroeste 9 Sudoeste 0 1015.9 0 92
2018-05-11 04:00:00 17.8 3 Oeste 16 Nordeste 0 1016.1 0.3 85
2018-05-11 03:00:00 17.9 12 Este 23 Este 0 1015.8 0.2 88
2018-05-11 02:00:00 18.5 12 Este 20 Este 0 1015.9 0.8 86
2018-05-11 01:00:00 18.8 12 Este 18 Este 0 1015.8 1.3 84
2018-05-11 00:00:00 18.9 3 Sudeste 7 Este 0 1015.6 1.9 82
2018-05-10 23:00:00 19.6 2 Oeste 7 Oeste 0 1015.1 2.3 79
2018-05-10 22:00:00 20.7 2 Oeste 13 Oeste 0 1014.5 1.8 73
2018-05-10 21:00:00 21.2 5 Oeste 19 Oeste 0 1013.7 1 71
2018-05-10 20:00:00 21.7 10 Oeste 32 Oeste 0 1012.8 -0.2 69
2018-05-10 19:00:00 21.7 7 Oeste 31 Oeste 0 1012.7 -0.7 70
2018-05-10 18:00:00 21.4 10 Oeste 32 Oeste 0 1012.7 -0.8 71
2018-05-10 17:00:00 21.2 11 Oeste 42 Oeste 0 1013 -0.1 72
2018-05-10 16:00:00 20.8 10 Sudoeste 37 Oeste 0 1013.4 0.4 75
2018-05-10 15:00:00 20.3 11 Oeste 35 Sudoeste 0 1013.5 0.8 76
2018-05-10 14:00:00 20.3 10 Sudoeste 39 Sudoeste 0 1013.1 0.7 78
2018-05-10 13:00:00 19.6 7 Sudoeste 31 Sur 0 1013 0.5 79
2018-05-10 12:00:00 20 14 Sudeste 32 Sur 0 1012.7 0.4 78
2018-05-10 11:00:00 18.7 8 Sudoeste 22 Oeste 0 1012.4 0.7 81
2018-05-10 10:00:00 18.5 6 Sudoeste 24 Oeste 0 1012.5 1.2 79
2018-05-10 09:00:00 17.9 4 Sudoeste 15 Oeste 0 1012.3 1.2 80
2018-05-10 08:00:00 17.6 5 Sudoeste 15 Sudoeste 0 1011.7 0.9 80
2018-05-10 07:00:00 17.9 5 Oeste 15 Oeste 0 1011.3 0.3 79
2018-05-10 06:00:00 17.5 5 Oeste 22 Oeste 0 1011.1 -0.3 80
2018-05-10 05:00:00 18 4 Oeste 14 Oeste 0 1010.8 -0.9 81
2018-05-10 04:00:00 18 2 Sudoeste 16 Oeste 0 1011 -0.8 82
2018-05-10 03:00:00 18 4 Oeste 16 Oeste 0 1011.4 -0.6 81
2018-05-10 02:00:00 18.8 3 Sudoeste 19 Sudoeste 0 1011.7 -0.1 81
2018-05-10 01:00:00 19 4 Sudoeste 22 Oeste 0 1011.8 0.6 81
2018-05-10 00:00:00 19.3 5 Oeste 24 Oeste 0 1012 1.2 78
2018-05-09 23:00:00 20.4 5 Oeste 20 Oeste 0 1011.8 1.5 77
2018-05-09 22:00:00 20.5 8 Oeste 30 Oeste 0 1011.2 1.4 76
2018-05-09 21:00:00 20.7 9 Oeste 35 Oeste 0 1010.8 1.3 75
2018-05-09 20:00:00 21.7 7 Oeste 31 Sudoeste 0 1010.3 0.9 73
2018-05-09 19:00:00 22.6 9 Oeste 28 Oeste 0 1009.8 0 71
2018-05-09 18:00:00 23.5 7 Oeste 30 Sudoeste 0 1009.5 -0.8 70
2018-05-09 17:00:00 24.2 8 Sudoeste 29 Oeste 0 1009.4 -1.3 69
2018-05-09 16:00:00 23.4 13 Oeste 38 Noroeste 0 1009.8 -1.1 70
2018-05-09 15:00:00 22.7 10 Oeste 33 Oeste 0 1010.3 -1 73
2018-05-09 14:00:00 22 11 Sudoeste 39 Oeste 0 1010.7 -0.5 74
2018-05-09 13:00:00 22.6 10 Oeste 29 Oeste 0 1010.9 0.1 73
2018-05-09 12:00:00 20.6 8 Sudoeste 23 Sudoeste 0 1011.3 1.1 82
2018-05-09 11:00:00 20.1 7 Sur 21 Sur 0 1011.2 1.5 84
2018-05-09 10:00:00 19.1 12 Sudoeste 19 Sur 0 1010.8 1.7 89
2018-05-09 09:00:00 18.5 3 Sudoeste 13 Sur 0 1010.2 1.4 92
2018-05-09 08:00:00 18 0 Calma 7 Sur 0.1 1009.7 0.7 94
2018-05-09 07:00:00 18.1 2 Sudoeste 15 Sur 0 1009.1 -0.2 93
2018-05-09 06:00:00 18.1 3 Sudoeste 13 Sudoeste 0 1008.8 -0.8 93
2018-05-09 05:00:00 18.2 4 Sudoeste 12 Sudoeste 0 1009 -1.4 92
2018-05-09 04:00:00 18.4 6 Sudoeste 13 Sudoeste 0 1009.3 -0.6 92
2018-05-09 03:00:00 19.2 3 Noroeste 13 Sudoeste 0 1009.6 -0.6 89
2018-05-09 02:00:00 19.7 2 Sudoeste 14 Norte 0 1010.4 0.4 89
2018-05-09 01:00:00 19.4 3 Sudoeste 19 Sudoeste 0 1009.9 0.1 90
2018-05-09 00:00:00 19.9 4 Sudoeste 14 Sur 0 1010.2 1 87
2018-05-08 23:00:00 20.6 4 Sudoeste 23 Sur 0 1010 1.6 84
2018-05-08 22:00:00 22.1 6 Nordeste 26 Este 0 1009.8 1.4 77
2018-05-08 21:00:00 20.8 3 Nordeste 28 Este 0 1009.2 0.7 86
2018-05-08 20:00:00 23.3 4 Oeste 16 Oeste 0 1008.4 -0.7 72
2018-05-08 19:00:00 24.9 6 Oeste 22 Sudoeste 0 1008.4 -1.4 68
2018-05-08 18:00:00 23.8 5 Sudoeste 18 Sudoeste 0 1008.5 -1.6 71
2018-05-08 17:00:00 21.4 4 Nordeste 20 Nordeste 0 1009.1 -1.8 85
2018-05-08 16:00:00 21.7 13 Nordeste 22 Sudoeste 0 1009.8 -1.7 80
2018-05-08 15:00:00 19.1 15 Sur 20 Sudoeste 0 1010.1 -1.8 92
2018-05-08 14:00:00 18.4 14 Sudoeste 21 Sur 0 1010.9 -1 87
2018-05-08 13:00:00 17.9 14 Sur 24 Sudoeste 0 1011.5 -0.8 94
2018-05-08 12:00:00 17.2 18 Sudoeste 27 Sudoeste 0 1011.9 -0.1 93
2018-05-08 11:00:00 18.7 10 Sudoeste 17 Sudoeste 0 1011.9 -0.2 82
2018-05-08 10:00:00 17.8 4 Sudoeste 9 Sudoeste 0 1012.3 0.3 85
2018-05-08 09:00:00 16.9 2 Oeste 8 Oeste 0 1012 -0.4 83
2018-05-08 08:00:00 16.4 0 Calma 15 Oeste 0 1012.1 -0.8 84
2018-05-08 07:00:00 15.6 7 Oeste 15 Oeste 0 1012 -1.2 84
2018-05-08 06:00:00 15.9 7 Noroeste 11 Oeste 0 1012.4 -1.4 84
2018-05-08 05:00:00 16.2 7 Oeste 11 Oeste 0 1012.9 -1.4 84
2018-05-08 04:00:00 16.2 3 Oeste 12 Oeste 0 1013.2 -1.2 83
2018-05-08 03:00:00 17.3 2 Oeste 8 Oeste 0 1013.8 -0.5 81
2018-05-08 02:00:00 17.2 4 Oeste 8 Oeste 0 1014.3 0.4 81
2018-05-08 01:00:00 17.7 2 Oeste 6 Oeste 0 1014.4 1.1 81
2018-05-08 00:00:00 18.4 0 Calma 7 Oeste 0 1014.3 1 78
2018-05-07 23:00:00 18.4 2 Oeste 7 Oeste 0 1013.9 0.7 76
2018-05-07 22:00:00 18.2 3 Sudoeste 9 Sudoeste 0 1013.3 -0.2 83
2018-05-07 21:00:00 19.3 0 Calma 8 Sudeste 0 1013.3 0 79
2018-05-07 20:00:00 20.4 4 Sur 14 Noroeste 0 1013.2 -0.1 69
2018-05-07 19:00:00 20 4 Oeste 17 Sudoeste 0 1013.5 -0.3 72
2018-05-07 18:00:00 19.7 5 Sudoeste 18 Sudoeste 0 1013.3 -1 73
2018-05-07 17:00:00 19.7 9 Sudoeste 19 Sudoeste 0 1013.3 -1.2 76
2018-05-07 16:00:00 19.7 8 Sudoeste 16 Sudoeste 0 1013.8 -1 74
2018-05-07 15:00:00 20.2 3 Sur 9 Sudeste 0 1014.3 -1 75
2018-05-07 14:00:00 20 5 Nordeste 10 Nordeste 0 1014.5 -0.8 77
2018-05-07 13:00:00 18.4 3 Nordeste 9 Norte 0 1014.8 -0.6 88
2018-05-07 12:00:00 17.4 2 Oeste 7 Sudoeste 0 1015.3 0.4 95
2018-05-07 11:00:00 17.1 5 Este 15 Nordeste 1.1 1015.3 0.5 95
2018-05-07 10:00:00 17.6 2 Nordeste 11 Noroeste 3.8 1015.4 1.4 90
2018-05-07 09:00:00 17.9 5 Norte 11 Norte 0 1014.9 1.6 85
2018-05-07 08:00:00 17.6 2 Noroeste 9 Oeste 0 1014.8 1.6 84
2018-05-07 07:00:00 17.7 4 Oeste 12 Oeste 0 1014 0.9 85
2018-05-07 06:00:00 17.6 2 Oeste 9 Oeste 0 1013.3 -0.4 83
2018-05-07 05:00:00 17.6 2 Sudoeste 12 Oeste 0 1013.2 -1.2 86
2018-05-07 04:00:00 17.6 7 Oeste 12 Oeste 0 1013.1 -1.7 81
2018-05-07 03:00:00 17.8 4 Nordeste 18 Este 0 1013.7 -1.3 84
2018-05-07 02:00:00 18.2 11 Este 19 Este 0 1014.4 -0.5 81
2018-05-07 01:00:00 18.3 8 Este 16 Nordeste 0 1014.8 0.6 80
2018-05-07 00:00:00 18.5 8 Nordeste 16 Nordeste 0 1015 0.9 81
2018-05-06 23:00:00 18.5 6 Este 16 Este 0 1014.9 1.3 80
2018-05-06 22:00:00 18.3 5 Nordeste 14 Este 0 1014.2 0.8 82
2018-05-06 21:00:00 18.9 9 Este 18 Este 0 1014.1 0.4 81
2018-05-06 20:00:00 19.6 8 Este 18 Este 0 1013.6 -0.5 80
2018-05-06 19:00:00 19.8 13 Este 19 Este 0 1013.4 -1.3 79
2018-05-06 18:00:00 20.2 8 Este 15 Este 0 1013.7 -1.5 79
2018-05-06 17:00:00 20 9 Nordeste 15 Nordeste 0 1014.1 -1.6 77
2018-05-06 16:00:00 20.4 9 Este 15 Nordeste 0 1014.7 -1.2 76
2018-05-06 15:00:00 19.8 10 Nordeste 17 Nordeste 0 1015.2 -1 76
2018-05-06 14:00:00 20 9 Este 16 Nordeste 0 1015.7 -0.4 76
2018-05-06 13:00:00 19.5 12 Este 21 Este 0 1015.9 0.2 76
2018-05-06 12:00:00 19.2 13 Este 24 Este 0 1016.2 0.7 75
2018-05-06 11:00:00 18.7 16 Este 24 Este 0 1016.1 0.9 76
2018-05-06 10:00:00 18.2 11 Este 22 Este 0 1015.7 0.8 82
2018-05-06 09:00:00 17.3 14 Este 20 Este 0 1015.5 0.7 87
2018-05-06 08:00:00 16.7 10 Nordeste 16 Nordeste 0 1015.2 0.3 92
2018-05-06 07:00:00 16.9 9 Nordeste 18 Este 0 1014.9 -0.2 90
2018-05-06 06:00:00 16.8 8 Este 15 Este 0 1014.8 -0.4 85
2018-05-06 05:00:00 17.2 12 Este 16 Este 0 1014.9 -0.7 82
2018-05-06 04:00:00 16.3 0 Calma 12 Este 0 1015.1 -0.5 77
2018-05-06 03:00:00 17.2 5 Este 10 Este 0 1015.2 -0.4 77
2018-05-06 02:00:00 17.2 3 Nordeste 10 Este 0 1015.6 0.5 76
2018-05-06 01:00:00 17.7 8 Este 12 Este 0 1015.6 0.7 81
2018-05-06 00:00:00 17.9 3 Nordeste 7 Oeste 0 1015.6 1.1 73
2018-05-05 23:00:00 18 5 Este 16 Este 0 1015.1 1 75
2018-05-05 22:00:00 18.1 8 Este 15 Este 0 1014.9 0.6 78
2018-05-05 21:00:00 18.9 9 Este 19 Este 0 1014.5 0.1 75
2018-05-05 20:00:00 19.4 12 Este 19 Este 0 1014.1 -0.5 78
2018-05-05 19:00:00 19.7 5 Este 9 Este 0 1014.3 -0.8 80
2018-05-05 18:00:00 20.1 6 Este 11 Sudeste 0 1014.4 -1 82
2018-05-05 17:00:00 19.7 6 Sudeste 13 Sudeste 0 1014.6 -1.2 84
2018-05-05 16:00:00 19.8 8 Sudeste 13 Sudeste 0 1015.1 -1.2 82
2018-05-05 15:00:00 19.8 8 Sudeste 12 Este 0 1015.4 -0.7 82
2018-05-05 14:00:00 19.1 8 Este 14 Nordeste 0 1015.8 -0.3 84
2018-05-05 13:00:00 19 8 Este 13 Este 0 1016.3 0.8 82
2018-05-05 12:00:00 18.7 7 Sudeste 15 Sudeste 0 1016.1 1.3 84
2018-05-05 11:00:00 17.9 11 Sudeste 16 Sudeste 0 1016.1 1.9 84
2018-05-05 10:00:00 16.9 0 Calma 6 Noroeste 0 1015.5 1.8 82
2018-05-05 09:00:00 16.1 4 Noroeste 9 Oeste 0 1014.8 1.4 86
2018-05-05 08:00:00 15.2 5 Noroeste 12 Oeste 0 1014.2 0.7 87
2018-05-05 07:00:00 15.6 3 Noroeste 13 Nordeste 0 1013.7 0 83
2018-05-05 06:00:00 16.2 9 Este 14 Este 0 1013.4 -0.8 86
2018-05-05 05:00:00 15.3 4 Oeste 17 Este 0 1013.5 -1 90
2018-05-05 04:00:00 16.1 2 Este 18 Nordeste 0 1013.7 -0.6 89
2018-05-05 03:00:00 16.3 11 Nordeste 14 Nordeste 0 1014.2 0.1 97
2018-05-05 02:00:00 16.7 9 Este 14 Este 0 1014.5 1 96
2018-05-05 01:00:00 16.3 6 Este 13 Nordeste 0 1014.3 1.3 95
2018-05-05 00:00:00 17 3 Este 9 Este 0 1014.1 1.9 89
2018-05-04 23:00:00 16.8 0 Calma 6 Sudoeste 0 1013.5 1.8 90
2018-05-04 22:00:00 17.5 0 Calma 11 Sudoeste 0 1013 1.5 85
2018-05-04 21:00:00 17.6 3 Sudoeste 10 Sur 0 1012.2 0.7 87
2018-05-04 20:00:00 18.3 8 Sur 10 Sur 0 1011.7 0 85
2018-05-04 19:00:00 18.7 9 Sur 13 Sudoeste 0 1011.5 -0.3 84
2018-05-04 18:00:00 18.7 2 Sudoeste 16 Este 0 1011.5 0.1 88
2018-05-04 17:00:00 18.6 14 Este 27 Este 0 1011.7 0.7 90
2018-05-04 16:00:00 17.6 20 Este 31 Este 0 1011.8 1.1 90
2018-05-04 15:00:00 19 22 Este 38 Este 0 1011.4 0.8 86
2018-05-04 14:00:00 19.8 19 Este 27 Sudeste 0 1011 0.8 84
2018-05-04 13:00:00 18.8 10 Sudeste 15 Sudeste 0 1010.7 1.1 84
2018-05-04 12:00:00 18.5 7 Este 11 Este 0 1010.6 1.5 87
2018-05-04 11:00:00 17.9 0 Calma 9 Este 0 1010.2 1.7 83
2018-05-04 10:00:00 18.3 7 Este 17 Nordeste 0 1009.6 1.5 81
2018-05-04 09:00:00 17.7 8 Este 16 Sur 0 1009.1 0.9 78
2018-05-04 08:00:00 17.1 3 Sudoeste 10 Sudoeste 0 1008.5 0.1 76
2018-05-04 07:00:00 17.7 3 Oeste 13 Oeste 0 1008.1 -0.6 69
2018-05-04 06:00:00 18.1 6 Oeste 12 Noroeste 0 1008.2 -0.9 69
2018-05-04 05:00:00 18.3 7 Oeste 13 Oeste 0 1008.4 -1.5 69
2018-05-04 04:00:00 19.1 3 Sudeste 16 Oeste 0 1008.7 -1.8 66
2018-05-04 03:00:00 20.7 2 Nordeste 24 Oeste 0 1009.1 -1.3 60
2018-05-04 02:00:00 20.5 3 Oeste 23 Norte 0 1009.9 -0.2 60
2018-05-04 01:00:00 20.2 3 Sur 14 Este 0 1010.5 0.7 60
2018-05-04 00:00:00 19.9 3 Nordeste 18 Noroeste 0 1010.4 1 62
2018-05-03 23:00:00 19.4 3 Oeste 22 Oeste 0 1010.1 0.6 65
2018-05-03 22:00:00 19.9 3 Oeste 19 Oeste 0 1009.8 -0.1 65
2018-05-03 21:00:00 20 5 Oeste 15 Oeste 0 1009.4 -0.7 68
2018-05-03 20:00:00 20 4 Oeste 24 Oeste 0 1009.5 -1.1 71
2018-05-03 19:00:00 20.4 7 Oeste 26 Oeste 0 1009.9 -1.4 64
2018-05-03 18:00:00 20.3 8 Sudoeste 25 Sudoeste 0 1010.1 -1.9 61
2018-05-03 17:00:00 20.1 8 Sudoeste 25 Sudoeste 0 1010.6 -1.9 56
2018-05-03 16:00:00 19.4 7 Oeste 24 Sudoeste 0 1011.3 -1.6 57
2018-05-03 15:00:00 19 9 Sudoeste 27 Sur 0 1012 -0.8 62
2018-05-03 14:00:00 18.4 10 Sudoeste 28 Sur 0 1012.5 -0.4 62
2018-05-03 13:00:00 18.8 7 Sudoeste 24 Sudoeste 0 1012.9 -0.1 60
2018-05-03 12:00:00 19.1 10 Sudoeste 20 Sudoeste 0 1012.8 0 59
2018-05-03 11:00:00 19.8 4 Noroeste 16 Norte 0 1012.9 0.1 49
2018-05-03 10:00:00 18.4 3 Norte 20 Noroeste 0 1013 0.5 53
2018-05-03 09:00:00 18.2 12 Noroeste 31 Noroeste 0 1012.8 -0.1 51
2018-05-03 08:00:00 16.6 14 Noroeste 34 Noroeste 0 1012.8 -0.4 55
2018-05-03 07:00:00 16.8 11 Noroeste 31 Norte 0 1012.5 -1 55
2018-05-03 06:00:00 16.9 6 Oeste 34 Noroeste 0 1012.9 -1.2 54
2018-05-03 05:00:00 17 7 Noroeste 24 Noroeste 0 1013.2 -1.3 53
2018-05-03 04:00:00 17 6 Noroeste 25 Oeste 0 1013.5 -1.4 55
2018-05-03 03:00:00 17.3 4 Norte 23 Noroeste 0 1014.1 -0.8 56
2018-05-03 02:00:00 17.7 2 Noroeste 15 Oeste 0 1014.5 -0.4 55
2018-05-03 01:00:00 17.7 4 Oeste 16 Oeste 0 1014.9 0.4 57
2018-05-03 00:00:00 17.9 2 Noroeste 10 Oeste 0 1014.9 0.8 57
2018-05-02 23:00:00 17.9 2 Oeste 13 Oeste 0 1014.9 0.7 60
2018-05-02 22:00:00 18.9 4 Oeste 20 Norte 0 1014.5 0.1 57
2018-05-02 21:00:00 18.9 3 Noroeste 16 Oeste 0 1014.1 -0.5 65
2018-05-02 20:00:00 18.8 6 Oeste 18 Oeste 0 1014.2 -0.4 65
2018-05-02 19:00:00 18.3 10 Oeste 22 Oeste 0 1014.4 -0.6 69
2018-05-02 18:00:00 18.2 9 Sudoeste 29 Sudoeste 0 1014.6 -0.5 71
2018-05-02 17:00:00 18.5 9 Sudoeste 33 Oeste 0 1014.6 -0.7 68
2018-05-02 16:00:00 17.9 9 Sudoeste 27 Sudoeste 0 1015 -0.6 68
2018-05-02 15:00:00 17.8 9 Sudoeste 27 Sudoeste 0 1015.1 -0.7 65
2018-05-02 14:00:00 17.1 16 Sudoeste 35 Sur 0 1015.3 -0.6 65
2018-05-02 13:00:00 17.3 12 Sur 22 Sur 0 1015.6 -0.3 66
2018-05-02 12:00:00 18.3 15 Nordeste 28 Nordeste 0 1015.8 0.1 53
2018-05-02 11:00:00 17 3 Oeste 15 Oeste 0 1015.9 0.6 60
2018-05-02 10:00:00 15.4 3 Oeste 9 Oeste 0 1015.9 1 68
2018-05-02 09:00:00 13.6 2 Oeste 12 Oeste 0 1015.7 0.8 73
2018-05-02 08:00:00 12.3 9 Oeste 20 Noroeste 0 1015.3 0.1 73
2018-05-02 07:00:00 12.3 8 Oeste 18 Oeste 0 1014.9 -0.3 73
2018-05-02 06:00:00 12.6 4 Oeste 12 Noroeste 0 1014.9 -1 74
2018-05-02 05:00:00 12.5 6 Noroeste 14 Oeste 0 1015.2 -0.9 73
2018-05-02 04:00:00 12.4 7 Noroeste 17 Oeste 0 1015.2 -0.9 74
2018-05-02 03:00:00 12.2 3 Noroeste 12 Oeste 0 1015.9 -0.1 75
2018-05-02 02:00:00 12.1 5 Oeste 12 Oeste 0 1016.1 0.4 79
2018-05-02 01:00:00 12.1 6 Oeste 14 Norte 0 1016.1 0.7 78
2018-05-02 00:00:00 13.1 6 Noroeste 14 Noroeste 0 1016 1 76
2018-05-01 23:00:00 13.6 6 Noroeste 13 Oeste 0.1 1015.7 1.5 74
2018-05-01 22:00:00 13.8 3 Noroeste 16 Sudoeste 0 1015.4 1 74
2018-05-01 21:00:00 14.7 3 Sudoeste 22 Oeste 0 1015 -0.1 69
2018-05-01 20:00:00 15.3 10 Noroeste 24 Noroeste 0 1014.2 0.2 66
2018-05-01 19:00:00 15 5 Oeste 21 Este 0 1014.4 -0.2 71
2018-05-01 18:00:00 13.3 5 Nordeste 34 Norte 0.5 1015.1 1.3 75
2018-05-01 17:00:00 14.3 10 Sur 32 Norte 1.5 1014 -0.3 72
2018-05-01 16:00:00 14.9 20 Nordeste 41 Norte 0 1014.6 -0.5 65
2018-05-01 15:00:00 15.7 4 Norte 16 Norte 0 1013.8 -0.5 68
2018-05-01 14:00:00 16.2 6 Sudeste 21 Nordeste 0 1014.3 -0.1 68
2018-05-01 13:00:00 14.6 5 Norte 32 Oeste 0 1015.1 0.9 71
2018-05-01 12:00:00 16.2 13 Sur 22 Sudoeste 0 1014.3 0.5 72
2018-05-01 11:00:00 16.5 6 Sudeste 14 Nordeste 0 1014.4 0.6 65
2018-05-01 10:00:00 15.6 4 Este 15 Este 0 1014.2 0.7 66
2018-05-01 09:00:00 14.7 6 Oeste 14 Oeste 0 1013.8 0.6 66
2018-05-01 08:00:00 14.1 7 Oeste 16 Oeste 0 1013.8 0.7 67
2018-05-01 07:00:00 14.7 3 Oeste 20 Oeste 0 1013.5 0.1 65
2018-05-01 06:00:00 14.9 3 Noroeste 26 Oeste 0 1013.2 -0.6 63
2018-05-01 05:00:00 15 5 Oeste 31 Oeste 0 1013.1 -1.3 63
2018-05-01 04:00:00 15.2 8 Oeste 24 Oeste 0 1013.4 -1.1 62
2018-05-01 03:00:00 15.1 5 Sudoeste 18 Noroeste 0 1013.8 -0.9 64
2018-05-01 02:00:00 15.6 5 Sudoeste 15 Sudoeste 0 1014.4 -0.1 62
2018-05-01 01:00:00 15.7 5 Oeste 30 Oeste 0 1014.5 0.3 60
2018-05-01 00:00:00 15.9 7 Norte 15 Noroeste 0 1014.7 1.2 56
2018-04-30 23:00:00 16.2 2 Oeste 17 Oeste 0 1014.5 1.2 57
2018-04-30 22:00:00 17 5 Noroeste 21 Norte 0 1014.2 1 55
2018-04-30 21:00:00 17.7 8 Norte 23 Noroeste 0 1013.5 0.6 54
2018-04-30 20:00:00 18.2 9 Norte 26 Noroeste 0 1013.3 -0.1 53
2018-04-30 19:00:00 17.8 6 Noroeste 15 Noroeste 0 1013.2 -0.6 57
2018-04-30 18:00:00 16.8 11 Sur 24 Sudoeste 0 1012.9 -1.4 76
2018-04-30 17:00:00 16.7 10 Sudoeste 26 Sudoeste 0 1013.4 -1.4 74
2018-04-30 16:00:00 16.6 7 Sudoeste 27 Sudoeste 0 1013.8 -1.6 69
2018-04-30 15:00:00 16.4 14 Sudoeste 25 Sudoeste 0 1014.3 -1.2 68
2018-04-30 14:00:00 16.1 15 Sudoeste 21 Sudoeste 0 1014.8 -0.7 65
2018-04-30 13:00:00 15.4 14 Sudoeste 19 Sudoeste 0 1015.4 -0.3 73
2018-04-30 12:00:00 15.8 8 Sudeste 13 Sudeste 0 1015.5 -0.1 69
2018-04-30 11:00:00 15 8 Sur 15 Sudeste 0 1015.5 0.1 72
2018-04-30 10:00:00 14.2 4 Nordeste 13 Nordeste 0 1015.7 0.6 71
2018-04-30 09:00:00 13 5 Oeste 14 Oeste 0 1015.6 0.6 75
2018-04-30 08:00:00 12.3 6 Noroeste 14 Oeste 0 1015.4 0.2 76
2018-04-30 07:00:00 12.5 5 Oeste 12 Oeste 0 1015.1 -0.4 74
2018-04-30 06:00:00 12.2 8 Oeste 15 Oeste 0 1015 -1.2 72
2018-04-30 05:00:00 12.7 6 Oeste 14 Oeste 0 1015.2 -1.5 72
2018-04-30 04:00:00 13.1 4 Oeste 9 Oeste 0 1015.5 -1.3 71
2018-04-30 03:00:00 13.8 4 Noroeste 12 Oeste 0 1016.2 -0.6 68
2018-04-30 02:00:00 14.4 3 Oeste 10 Oeste 0 1016.7 0 68
2018-04-30 01:00:00 15 2 Oeste 13 Oeste 0 1016.8 0.8 66
2018-04-30 00:00:00 15.5 7 Oeste 15 Oeste 0 1016.8 1.6 65
2018-04-29 23:00:00 15.9 6 Oeste 17 Oeste 0 1016.7 1.9 65
2018-04-29 22:00:00 16.5 2 Noroeste 26 Oeste 0 1016 1.4 62
2018-04-29 21:00:00 16.9 7 Oeste 33 Oeste 0 1015.2 0.7 62
2018-04-29 20:00:00 17.6 11 Oeste 39 Oeste 0 1014.8 0.4 59
2018-04-29 19:00:00 18 12 Oeste 39 Sudoeste 0 1014.6 -0.4 56
2018-04-29 18:00:00 18.2 14 Oeste 43 Oeste 0 1014.5 -1.3 57
2018-04-29 17:00:00 18 12 Sudoeste 50 Sudoeste 0 1014.4 -1.3 62
2018-04-29 16:00:00 17.2 14 Sudoeste 39 Sudoeste 0 1015 -1.1 65
2018-04-29 15:00:00 17.3 13 Sudoeste 36 Oeste 0 1015.8 -0.4 60
2018-04-29 14:00:00 16.5 14 Sudoeste 40 Oeste 0 1015.7 0 65
2018-04-29 13:00:00 16.1 13 Sudoeste 48 Sudoeste 0 1016.1 0.9 70
2018-04-29 12:00:00 15.3 15 Sudoeste 40 Sudoeste 0 1016.2 1.6 74
2018-04-29 11:00:00 15.9 9 Oeste 27 Oeste 0 1015.7 2 64
2018-04-29 10:00:00 14.6 8 Oeste 25 Oeste 0 1015.2 2.3 73
2018-04-29 09:00:00 13.9 7 Oeste 22 Oeste 0 1014.6 2.2 78
2018-04-29 08:00:00 13.3 5 Oeste 16 Oeste 0 1013.7 1.7 73
2018-04-29 07:00:00 13.3 4 Oeste 18 Oeste 0 1012.9 1.2 76
2018-04-29 06:00:00 13.8 7 Oeste 26 Oeste 0 1012.4 0.5 71
2018-04-29 05:00:00 14.1 5 Oeste 23 Sudoeste 0 1012 -0.1 72
2018-04-29 04:00:00 14.1 8 Oeste 26 Oeste 0 1011.7 -0.8 81
2018-04-29 03:00:00 14.3 6 Oeste 25 Sudoeste 0 1011.9 -0.7 81
2018-04-29 02:00:00 14.5 6 Oeste 28 Oeste 0 1012.1 0.2 77
2018-04-29 01:00:00 15.2 8 Oeste 27 Oeste 0 1012.5 1.4 77
2018-04-29 00:00:00 15.5 8 Oeste 33 Oeste 0 1012.6 2.6 71
2018-04-28 23:00:00 15.8 10 Oeste 35 Oeste 0 1011.9 2.4 65
2018-04-28 22:00:00 16.5 10 Oeste 42 Oeste 0 1011.1 1.5 64
2018-04-28 21:00:00 17.2 10 Oeste 36 Oeste 0 1010 0.1 59
2018-04-28 20:00:00 18.6 8 Oeste 35 Oeste 0 1009.5 -1 54
2018-04-28 19:00:00 18.6 10 Oeste 45 Noroeste 0 1009.6 -1.2 56
2018-04-28 18:00:00 19 14 Oeste 45 Oeste 0 1009.9 -1.3 59
2018-04-28 17:00:00 19.2 14 Oeste 47 Oeste 0 1010.5 -0.9 60
2018-04-28 16:00:00 19.3 12 Oeste 47 Oeste 0 1010.8 -1.4 62
2018-04-28 15:00:00 18.1 17 Sudoeste 49 Sudoeste 0 1011.2 -1 68
2018-04-28 14:00:00 18.7 14 Oeste 48 Oeste 0 1011.4 -0.4 69
2018-04-28 13:00:00 18.7 12 Oeste 50 Oeste 0 1012.2 0.2 72
2018-04-28 12:00:00 18.5 14 Oeste 48 Oeste 0 1012.2 0.7 75
2018-04-28 11:00:00 17.3 14 Oeste 40 Oeste 0 1011.8 0.6 82
2018-04-28 10:00:00 17 5 Oeste 21 Sudoeste 0 1012 1.2 88
2018-04-28 09:00:00 16.4 6 Oeste 22 Oeste 0 1011.5 0.8 91
2018-04-28 08:00:00 16 8 Oeste 22 Oeste 0 1011.2 0.4 92
2018-04-28 07:00:00 16.4 7 Oeste 22 Oeste 0 1010.8 0.2 88
2018-04-28 06:00:00 16.7 4 Oeste 11 Oeste 0 1010.7 -0.2 81
2018-04-28 05:00:00 16.7 2 Oeste 6 Oeste 0 1010.8 -0.4 87
2018-04-28 04:00:00 17.1 2 Oeste 5 Sudoeste 0 1010.6 -0.9 90
2018-04-28 03:00:00 17.6 2 Sudoeste 7 Sur 0 1010.9 -0.8 88
2018-04-28 02:00:00 18.1 0 Calma 7 Oeste 0 1011.2 -0.7 87
2018-04-28 01:00:00 18.1 2 Sudoeste 10 Sur 0 1011.5 0 87
2018-04-28 00:00:00 19.1 2 Sudoeste 13 Oeste 0 1011.7 0.7 84
2018-04-27 23:00:00 19.4 6 Sudoeste 13 Sudoeste 0 1011.9 1.1 84
2018-04-27 22:00:00 20.9 0 Calma 12 Oeste 0 1011.5 0.6 78
2018-04-27 21:00:00 22.5 5 Oeste 17 Oeste 0 1011 -0.3 72
2018-04-27 20:00:00 22.9 5 Sudoeste 24 Sudoeste 0 1010.8 -0.9 71
2018-04-27 19:00:00 23.8 6 Sudoeste 21 Oeste 0 1010.9 -1.3 71
2018-04-27 18:00:00 23.2 5 Oeste 20 Oeste 0 1011.3 -1.7 71
2018-04-27 17:00:00 21.4 9 Sudoeste 23 Sudoeste 0 1011.7 -1.5 78
2018-04-27 16:00:00 21.3 10 Sudoeste 22 Oeste 0 1012.2 -1.7 73
2018-04-27 15:00:00 20.1 8 Sudoeste 25 Oeste 0 1013 -1 72
2018-04-27 14:00:00 19.7 8 Sudoeste 23 Oeste 0 1013.2 -1.1 73
2018-04-27 13:00:00 19.6 9 Sudoeste 25 Sudoeste 0 1013.9 -0.5 71
2018-04-27 12:00:00 20.1 11 Sudoeste 21 Sudoeste 0 1014 -0.4 73
2018-04-27 11:00:00 19.2 10 Sudoeste 18 Sudoeste 0 1014.3 -0.2 78
2018-04-27 10:00:00 19.2 5 Oeste 14 Oeste 0 1014.4 -0.2 82
2018-04-27 09:00:00 17.2 5 Noroeste 14 Oeste 0 1014.4 -0.6 89
2018-04-27 08:00:00 16.2 9 Oeste 13 Oeste 0 1014.5 -0.9 88
2018-04-27 07:00:00 16 7 Oeste 15 Oeste 0 1014.6 -1.3 88
2018-04-27 06:00:00 16.3 6 Oeste 13 Oeste 0 1015 -1.8 87
2018-04-27 05:00:00 16.8 5 Oeste 10 Oeste 0 1015.4 -2.2 87
2018-04-27 04:00:00 17.3 3 Noroeste 9 Noroeste 0 1015.9 -2 87
2018-04-27 03:00:00 17.4 3 Noroeste 11 Oeste 0 1016.8 -1.4 89
2018-04-27 02:00:00 17.8 4 Oeste 13 Oeste 0 1017.6 -0.7 88
2018-04-27 01:00:00 18.1 4 Oeste 14 Oeste 0 1017.9 -0.1 87
2018-04-27 00:00:00 18.2 3 Sudoeste 12 Sudoeste 0 1018.2 0.8 87
2018-04-26 23:00:00 18.5 3 Sudoeste 14 Oeste 0 1018.3 1.2 89
2018-04-26 22:00:00 18.5 5 Oeste 15 Oeste 0 1018 1 89
2018-04-26 21:00:00 18.5 5 Oeste 15 Oeste 0 1017.4 1.1 91
2018-04-26 20:00:00 18.4 4 Sudoeste 15 Sudoeste 0 1017.1 1.1 93
2018-04-26 19:00:00 18.5 4 Sur 11 Sur 0 1017 1 94
2018-04-26 18:00:00 19.1 10 Sur 15 Sur 0 1016.3 0.4 93
2018-04-26 17:00:00 19.4 8 Sudeste 11 Sudeste 0 1016 -0.1 91
2018-04-26 16:00:00 19.3 6 Sudeste 10 Sudeste 0 1016 0.7 93
2018-04-26 15:00:00 19 6 Sudeste 12 Sudeste 0 1015.9 1 93
2018-04-26 14:00:00 18.6 8 Sudeste 21 Sudeste 0 1016.1 2 95
2018-04-26 13:00:00 18.4 13 Sudoeste 22 Sudoeste 0 1015.3 0.8 90
2018-04-26 12:00:00 18.4 9 Sudoeste 26 Sur 0 1014.9 0.7 89
2018-04-26 11:00:00 18.4 12 Sudoeste 22 Sudoeste 0 1014.1 0.5 91
2018-04-26 10:00:00 17.8 3 Este 10 Nordeste 0 1014.5 1.2 92
2018-04-26 09:00:00 16.9 4 Sudoeste 14 Oeste 0 1014.2 0.7 96
2018-04-26 08:00:00 16 6 Noroeste 17 Oeste 0 1013.6 -0.1 95
2018-04-26 07:00:00 16.5 2 Oeste 8 Oeste 0 1013.3 -1.5 95
2018-04-26 06:00:00 16.6 0 Calma 10 Oeste 0 1013.5 -1.4 94
2018-04-26 05:00:00 17 5 Oeste 19 Oeste 0 1013.7 -1.8 94
2018-04-26 04:00:00 17 4 Oeste 8 Oeste 0.3 1014.8 -1.2 92
2018-04-26 03:00:00 17.1 4 Oeste 10 Oeste 0 1014.9 -1.2 90
2018-04-26 02:00:00 17.2 3 Oeste 10 Oeste 0 1015.5 -0.6 91
2018-04-26 01:00:00 16.9 3 Oeste 11 Oeste 0 1016 0.9 95
2018-04-26 00:00:00 17.4 3 Oeste 8 Oeste 0 1016.1 1 98
2018-04-25 23:00:00 17.5 6 Sudoeste 13 Sur 0 1016.1 1.6 98
2018-04-25 22:00:00 17.3 3 Oeste 12 Sur 0 1015.1 1.2 98
2018-04-25 21:00:00 17.6 3 Sudoeste 10 Sur 0 1015.1 1.3 98
2018-04-25 20:00:00 17.9 8 Sur 13 Sur 0 1014.5 0.7 95
2018-04-25 19:00:00 17.9 5 Sudoeste 12 Sudoeste 0 1013.9 -0.2 94
2018-04-25 18:00:00 17.9 5 Sur 10 Sur 0 1013.8 -0.8 96
2018-04-25 17:00:00 17.9 8 Sur 10 Sur 0 1013.8 -0.3 95
2018-04-25 16:00:00 17.9 4 Sur 7 Sur 0 1014.1 -0.2 97
2018-04-25 15:00:00 17.5 2 Sur 11 Sur 0 1014.6 0.6 98
2018-04-25 14:00:00 17.2 3 Sur 13 Sudoeste 0 1014.1 0 98
2018-04-25 13:00:00 17.3 9 Sur 18 Sudeste 0 1014.3 1.1 96
2018-04-25 12:00:00 17.9 10 Sudeste 30 Sudeste 0.2 1014 0.8 95
2018-04-25 11:00:00 18.4 19 Este 31 Sudeste 0 1014.1 1.2 87
2018-04-25 10:00:00 18.9 3 Oeste 14 Oeste 0 1013.2 0.8 82
2018-04-25 09:00:00 18.1 4 Oeste 13 Oeste 0 1013.2 0.6 84
2018-04-25 08:00:00 17.4 0 Calma 7 Sur 0 1012.9 -0.3 88
2018-04-25 07:00:00 17.8 3 Sudoeste 12 Noroeste 0 1012.4 0.1 84
2018-04-25 06:00:00 17.4 7 Oeste 18 Oeste 0 1012.6 -0.3 87
2018-04-25 05:00:00 18 6 Nordeste 15 Nordeste 0 1013.2 -0.5 86
2018-04-25 04:00:00 18.1 4 Oeste 12 Oeste 0 1012.3 -2.3 83
2018-04-25 03:00:00 18.4 4 Sudoeste 14 Noroeste 0 1012.9 -2.3 82
2018-04-25 02:00:00 18.7 6 Noroeste 12 Noroeste 0 1013.7 -0.6 82
2018-04-25 01:00:00 18.5 5 Noroeste 13 Noroeste 0 1014.6 1.1 84
2018-04-25 00:00:00 18.3 3 Oeste 12 Norte 0 1015.2 3.3 85
2018-04-24 23:00:00 18.3 4 Noroeste 15 Oeste 0 1014.3 3.4 84
2018-04-24 22:00:00 18.3 9 Oeste 21 Oeste 0 1013.5 2.1 84
2018-04-24 21:00:00 18.4 6 Sudoeste 23 Sudoeste 0 1011.9 -0.4 82
2018-04-24 20:00:00 19 6 Sudoeste 21 Sur 0 1010.9 -1.6 80
2018-04-24 19:00:00 19.3 5 Sudoeste 18 Sudoeste 0 1011.4 -1.2 80
2018-04-24 18:00:00 19.2 8 Sudoeste 21 Sur 0 1012.3 -0.4 79
2018-04-24 17:00:00 19.3 6 Oeste 21 Sudoeste 0 1012.5 -0.4 79
2018-04-24 16:00:00 19.5 9 Sudoeste 24 Sudoeste 0 1012.6 -1 77
2018-04-24 15:00:00 19.3 6 Sudoeste 24 Sudoeste 0 1012.7 -0.6 77
2018-04-24 14:00:00 19.1 9 Sudoeste 23 Sudoeste 0 1012.9 -0.3 79
2018-04-24 13:00:00 19 10 Sudoeste 25 Sudoeste 0 1013.6 0.7 81
2018-04-24 12:00:00 19 9 Sudoeste 22 Sur 0 1013.3 1.2 80
2018-04-24 11:00:00 18.7 6 Oeste 23 Sur 0 1013.2 1.5 80
2018-04-24 10:00:00 18.9 4 Oeste 17 Sudoeste 0 1012.9 2 78
2018-04-24 09:00:00 18.5 3 Oeste 10 Noroeste 0 1012.1 1.3 77
2018-04-24 08:00:00 18.4 0 Calma 15 Noroeste 0 1011.7 0.7 78
2018-04-24 07:00:00 18.5 4 Oeste 13 Oeste 0 1010.9 0.5 78
2018-04-24 06:00:00 18.5 6 Oeste 16 Noroeste 0 1010.8 0.2 80
2018-04-24 05:00:00 18.3 5 Oeste 22 Noroeste 0 1011 0.5 82
2018-04-24 04:00:00 18.2 7 Oeste 20 Oeste 0 1010.4 -0.3 82
2018-04-24 03:00:00 18 7 Oeste 26 Oeste 0 1010.6 -0.3 83
2018-04-24 02:00:00 18.1 9 Oeste 29 Oeste 0 1010.5 -0.8 81
2018-04-24 01:00:00 18.1 7 Sur 14 Oeste 0 1010.7 -0.2 83
2018-04-24 00:00:00 18.1 4 Oeste 11 Oeste 0 1010.9 0.3 84